FDX1244 RJCH-RJTT
Flight info
| Callsign | FDX1244 |
|---|---|
| Flight time | 1h 24m |
| Altitude | 34000 |
| Route | UWE Y32 RUBIS Y10 GODIN |
| Aircraft | MD11/H-SDE1E2E3FGHIJ2J3J4J5M1RWXY/LB1D1 |
Departure
| Time | 2026-05-07 18:52 |
|---|---|
| Airport | Hakodate Airport (RJCH) |
Arrival
| Time | 2026-05-07 20:17 |
|---|---|
| Airport | Tokyo Haneda International Airport (RJTT) |
| Time | Latitude | Longitude | Altitude | Speed | Heading |
|---|---|---|---|---|---|
| 2026-05-07 18:19 | 41.77470 | 140.81610 | 123 ft | 0 kts | 18° |
| 2026-05-07 18:44 | 41.77461 | 140.81606 | 123 ft | 2 kts | 18° |
| 2026-05-07 18:44 | 41.77446 | 140.81599 | 122 ft | 2 kts | 17° |
| 2026-05-07 18:44 | 41.77432 | 140.81593 | 121 ft | 2 kts | 17° |
| 2026-05-07 18:45 | 41.77417 | 140.81587 | 121 ft | 2 kts | 17° |
| 2026-05-07 18:45 | 41.77404 | 140.81583 | 120 ft | 1 kts | 17° |
| 2026-05-07 18:45 | 41.77393 | 140.81573 | 120 ft | 2 kts | 40° |
| 2026-05-07 18:45 | 41.77381 | 140.81560 | 119 ft | 2 kts | 39° |
| 2026-05-07 18:46 | 41.77370 | 140.81549 | 119 ft | 2 kts | 26° |
| 2026-05-07 18:46 | 41.77356 | 140.81547 | 119 ft | 2 kts | 334° |
| 2026-05-07 18:46 | 41.77346 | 140.81561 | 119 ft | 2 kts | 289° |
| 2026-05-07 18:46 | 41.77342 | 140.81580 | 119 ft | 2 kts | 284° |
| 2026-05-07 18:47 | 41.77340 | 140.81589 | 119 ft | 0 kts | 287° |
| 2026-05-07 18:49 | 41.77343 | 140.81580 | 119 ft | 2 kts | 287° |
| 2026-05-07 18:49 | 41.77353 | 140.81535 | 118 ft | 7 kts | 288° |
| 2026-05-07 18:50 | 41.77374 | 140.81447 | 117 ft | 12 kts | 288° |
| 2026-05-07 18:50 | 41.77405 | 140.81313 | 113 ft | 18 kts | 288° |
| 2026-05-07 18:50 | 41.77453 | 140.81125 | 110 ft | 22 kts | 288° |
| 2026-05-07 18:50 | 41.77504 | 140.80913 | 109 ft | 25 kts | 288° |
| 2026-05-07 18:51 | 41.77553 | 140.80672 | 105 ft | 28 kts | 275° |
| 2026-05-07 18:51 | 41.77468 | 140.80519 | 101 ft | 21 kts | 159° |
| 2026-05-07 18:51 | 41.77389 | 140.80670 | 102 ft | 19 kts | 104° |
| 2026-05-07 18:51 | 41.77351 | 140.80846 | 105 ft | 19 kts | 108° |
| 2026-05-07 18:52 | 41.77283 | 140.81126 | 106 ft | 66 kts | 108° |
| 2026-05-07 18:52 | 41.77043 | 140.82118 | 113 ft | 149 kts | 111° |
| 2026-05-07 18:52 | 41.76645 | 140.83720 | 184 ft | 206 kts | 109° |
| 2026-05-07 18:52 | 41.76138 | 140.85486 | 1192 ft | 195 kts | 111° |
| 2026-05-07 18:53 | 41.75678 | 140.87117 | 2112 ft | 192 kts | 109° |
| 2026-05-07 18:53 | 41.75221 | 140.88771 | 2733 ft | 193 kts | 111° |
| 2026-05-07 18:53 | 41.74741 | 140.90483 | 3243 ft | 202 kts | 113° |
| 2026-05-07 18:53 | 41.74208 | 140.92339 | 3459 ft | 234 kts | 113° |
| 2026-05-07 18:54 | 41.73591 | 140.94455 | 4122 ft | 248 kts | 114° |
| 2026-05-07 18:54 | 41.72662 | 140.96359 | 4959 ft | 243 kts | 151° |
| 2026-05-07 18:54 | 41.71170 | 140.97064 | 5843 ft | 235 kts | 185° |
| 2026-05-07 18:54 | 41.69664 | 140.96429 | 6658 ft | 227 kts | 224° |
| 2026-05-07 18:55 | 41.68586 | 140.94911 | 7520 ft | 231 kts | 233° |
| 2026-05-07 18:55 | 41.67631 | 140.93283 | 8541 ft | 227 kts | 233° |
| 2026-05-07 18:55 | 41.66636 | 140.91632 | 9394 ft | 235 kts | 232° |
| 2026-05-07 18:55 | 41.65508 | 140.89867 | 9656 ft | 266 kts | 230° |
| 2026-05-07 18:56 | 41.64268 | 140.88036 | 9946 ft | 274 kts | 229° |
| 2026-05-07 18:56 | 41.62955 | 140.86157 | 10857 ft | 281 kts | 228° |
| 2026-05-07 18:56 | 41.61542 | 140.84161 | 11265 ft | 307 kts | 228° |
| 2026-05-07 18:56 | 41.60028 | 140.82039 | 11471 ft | 338 kts | 227° |
| 2026-05-07 18:57 | 41.58384 | 140.79747 | 11775 ft | 363 kts | 227° |
| 2026-05-07 18:57 | 41.56636 | 140.77312 | 12745 ft | 368 kts | 227° |
| 2026-05-07 18:57 | 41.54883 | 140.74864 | 13829 ft | 369 kts | 227° |
| 2026-05-07 18:57 | 41.53161 | 140.72455 | 14957 ft | 368 kts | 228° |
| 2026-05-07 18:58 | 41.51510 | 140.70140 | 15877 ft | 371 kts | 228° |
| 2026-05-07 18:58 | 41.49726 | 140.67642 | 16729 ft | 377 kts | 228° |
| 2026-05-07 18:58 | 41.47919 | 140.65108 | 17674 ft | 379 kts | 228° |
| 2026-05-07 18:58 | 41.46186 | 140.62680 | 18497 ft | 382 kts | 228° |
| 2026-05-07 18:59 | 41.45309 | 140.61453 | 18902 ft | 384 kts | 228° |
| 2026-05-07 18:59 | 41.43669 | 140.59161 | 19629 ft | 387 kts | 228° |
| 2026-05-07 18:59 | 41.41806 | 140.56552 | 20421 ft | 391 kts | 228° |
| 2026-05-07 18:59 | 41.39943 | 140.53938 | 21219 ft | 393 kts | 228° |
| 2026-05-07 19:00 | 41.38051 | 140.51285 | 21999 ft | 396 kts | 229° |
| 2026-05-07 19:00 | 41.36148 | 140.48613 | 22699 ft | 399 kts | 228° |
| 2026-05-07 19:00 | 41.34225 | 140.45915 | 23475 ft | 401 kts | 228° |
| 2026-05-07 19:00 | 41.32321 | 140.43204 | 24128 ft | 405 kts | 232° |
| 2026-05-07 19:01 | 41.30907 | 140.39908 | 24892 ft | 407 kts | 248° |
| 2026-05-07 19:01 | 41.30163 | 140.36291 | 25481 ft | 414 kts | 254° |
| 2026-05-07 19:01 | 41.29124 | 140.32796 | 26034 ft | 416 kts | 238° |
| 2026-05-07 19:01 | 41.27287 | 140.29811 | 26915 ft | 417 kts | 224° |
| 2026-05-07 19:02 | 41.24915 | 140.27490 | 27560 ft | 426 kts | 215° |
| 2026-05-07 19:02 | 41.22324 | 140.25583 | 28235 ft | 433 kts | 212° |
| 2026-05-07 19:02 | 41.19505 | 140.23901 | 29110 ft | 437 kts | 206° |
| 2026-05-07 19:02 | 41.16633 | 140.22600 | 30266 ft | 431 kts | 206° |
| 2026-05-07 19:03 | 41.13868 | 140.21066 | 31247 ft | 423 kts | 211° |
| 2026-05-07 19:03 | 41.11321 | 140.19260 | 32269 ft | 414 kts | 216° |
| 2026-05-07 19:03 | 41.08886 | 140.17123 | 33162 ft | 407 kts | 219° |
| 2026-05-07 19:03 | 41.06374 | 140.15263 | 33616 ft | 411 kts | 207° |
| 2026-05-07 19:04 | 41.03583 | 140.14230 | 33747 ft | 423 kts | 196° |
| 2026-05-07 19:04 | 40.97591 | 140.14058 | 33733 ft | 429 kts | 188° |
| 2026-05-07 19:05 | 40.91569 | 140.14210 | 33730 ft | 439 kts | 187° |
| 2026-05-07 19:05 | 40.85466 | 140.14499 | 33717 ft | 436 kts | 186° |
| 2026-05-07 19:05 | 40.82424 | 140.14644 | 33852 ft | 437 kts | 187° |
| 2026-05-07 19:06 | 40.79384 | 140.14796 | 33737 ft | 439 kts | 186° |
| 2026-05-07 19:06 | 40.70177 | 140.15311 | 33774 ft | 440 kts | 186° |
| 2026-05-07 19:07 | 40.63974 | 140.15675 | 33729 ft | 437 kts | 186° |
| 2026-05-07 19:07 | 40.57772 | 140.16031 | 33766 ft | 440 kts | 186° |
| 2026-05-07 19:08 | 40.51614 | 140.16389 | 33738 ft | 439 kts | 186° |
| 2026-05-07 19:08 | 40.45388 | 140.16745 | 33759 ft | 441 kts | 186° |
| 2026-05-07 19:09 | 40.39164 | 140.17107 | 33730 ft | 441 kts | 186° |
| 2026-05-07 19:09 | 40.32880 | 140.17468 | 33751 ft | 442 kts | 185° |
| 2026-05-07 19:10 | 40.26620 | 140.17835 | 33731 ft | 441 kts | 186° |
| 2026-05-07 19:10 | 40.20382 | 140.18192 | 33742 ft | 441 kts | 186° |
| 2026-05-07 19:11 | 40.14155 | 140.18550 | 33743 ft | 443 kts | 185° |
| 2026-05-07 19:11 | 40.07851 | 140.18909 | 33727 ft | 443 kts | 185° |
| 2026-05-07 19:12 | 40.01723 | 140.19251 | 33744 ft | 441 kts | 185° |
| 2026-05-07 19:12 | 39.95518 | 140.19600 | 33749 ft | 445 kts | 185° |
| 2026-05-07 19:13 | 39.89369 | 140.19951 | 33738 ft | 445 kts | 185° |
| 2026-05-07 19:13 | 39.83176 | 140.20297 | 33754 ft | 445 kts | 185° |
| 2026-05-07 19:14 | 39.76967 | 140.20557 | 33741 ft | 444 kts | 186° |
| 2026-05-07 19:14 | 39.70762 | 140.20831 | 33745 ft | 446 kts | 185° |
| 2026-05-07 19:15 | 39.64556 | 140.21191 | 33745 ft | 449 kts | 185° |
| 2026-05-07 19:15 | 39.58246 | 140.21588 | 33747 ft | 449 kts | 185° |
| 2026-05-07 19:16 | 39.51974 | 140.21957 | 33730 ft | 447 kts | 185° |
| 2026-05-07 19:16 | 39.45662 | 140.22339 | 33762 ft | 452 kts | 185° |
| 2026-05-07 19:17 | 39.39362 | 140.22729 | 33731 ft | 451 kts | 184° |
| 2026-05-07 19:17 | 39.33116 | 140.23103 | 33754 ft | 452 kts | 184° |
| 2026-05-07 19:18 | 39.26814 | 140.23595 | 33725 ft | 452 kts | 181° |
| 2026-05-07 19:18 | 39.20539 | 140.24484 | 33758 ft | 456 kts | 180° |
| 2026-05-07 19:19 | 39.15279 | 140.25247 | 33740 ft | 455 kts | 181° |
| 2026-05-07 19:19 | 39.07915 | 140.26247 | 33744 ft | 458 kts | 181° |
| 2026-05-07 19:20 | 39.01549 | 140.27144 | 33734 ft | 460 kts | 180° |
| 2026-05-07 19:20 | 38.95088 | 140.28018 | 33750 ft | 461 kts | 181° |
| 2026-05-07 19:21 | 38.88663 | 140.28915 | 33740 ft | 459 kts | 180° |
| 2026-05-07 19:21 | 38.82290 | 140.29785 | 33753 ft | 459 kts | 181° |
| 2026-05-07 19:22 | 38.75882 | 140.30594 | 33735 ft | 462 kts | 180° |
| 2026-05-07 19:22 | 38.69420 | 140.31488 | 33754 ft | 462 kts | 180° |
| 2026-05-07 19:23 | 38.62984 | 140.32416 | 33737 ft | 459 kts | 180° |
| 2026-05-07 19:23 | 38.56479 | 140.33318 | 33758 ft | 463 kts | 180° |
| 2026-05-07 19:24 | 38.50048 | 140.34236 | 33740 ft | 462 kts | 180° |
| 2026-05-07 19:24 | 38.43620 | 140.35153 | 33763 ft | 463 kts | 179° |
| 2026-05-07 19:25 | 38.37252 | 140.36658 | 33747 ft | 471 kts | 171° |
| 2026-05-07 19:25 | 38.30862 | 140.39307 | 33769 ft | 477 kts | 167° |
| 2026-05-07 19:26 | 38.24449 | 140.42116 | 33747 ft | 476 kts | 167° |
| 2026-05-07 19:26 | 38.18092 | 140.44861 | 33743 ft | 476 kts | 167° |
| 2026-05-07 19:27 | 38.14940 | 140.46208 | 33398 ft | 473 kts | 168° |
| 2026-05-07 19:27 | 38.11748 | 140.47542 | 32975 ft | 472 kts | 168° |
| 2026-05-07 19:27 | 38.08627 | 140.48857 | 32611 ft | 474 kts | 167° |
| 2026-05-07 19:27 | 38.05454 | 140.50203 | 32263 ft | 479 kts | 167° |
| 2026-05-07 19:28 | 38.02279 | 140.51569 | 31881 ft | 482 kts | 167° |
| 2026-05-07 19:28 | 37.99081 | 140.52963 | 31473 ft | 483 kts | 167° |
| 2026-05-07 19:28 | 37.95844 | 140.54379 | 31065 ft | 484 kts | 166° |
| 2026-05-07 19:28 | 37.92620 | 140.55785 | 30660 ft | 486 kts | 166° |
| 2026-05-07 19:29 | 37.89376 | 140.57194 | 30259 ft | 487 kts | 166° |
| 2026-05-07 19:29 | 37.86078 | 140.58626 | 29862 ft | 490 kts | 166° |
| 2026-05-07 19:29 | 37.82818 | 140.60043 | 29466 ft | 492 kts | 166° |
| 2026-05-07 19:29 | 37.79510 | 140.61465 | 29052 ft | 492 kts | 168° |
| 2026-05-07 19:30 | 37.76104 | 140.62407 | 28668 ft | 484 kts | 178° |
| 2026-05-07 19:30 | 37.72704 | 140.62617 | 28335 ft | 478 kts | 187° |
| 2026-05-07 19:30 | 37.69413 | 140.62140 | 27960 ft | 473 kts | 195° |
| 2026-05-07 19:30 | 37.66144 | 140.61240 | 27568 ft | 471 kts | 198° |
| 2026-05-07 19:31 | 37.62969 | 140.60252 | 27183 ft | 471 kts | 198° |
| 2026-05-07 19:31 | 37.59766 | 140.59255 | 26807 ft | 472 kts | 197° |
| 2026-05-07 19:31 | 37.57938 | 140.58702 | 26595 ft | 472 kts | 197° |
| 2026-05-07 19:31 | 37.54700 | 140.57758 | 26223 ft | 473 kts | 197° |
| 2026-05-07 19:32 | 37.51455 | 140.56833 | 25847 ft | 474 kts | 197° |
| 2026-05-07 19:32 | 37.48175 | 140.55902 | 25479 ft | 472 kts | 197° |
| 2026-05-07 19:32 | 37.44986 | 140.55000 | 25119 ft | 468 kts | 196° |
| 2026-05-07 19:32 | 37.41951 | 140.54140 | 24773 ft | 464 kts | 197° |
| 2026-05-07 19:33 | 37.39624 | 140.53476 | 24515 ft | 462 kts | 197° |
| 2026-05-07 19:33 | 37.36514 | 140.52583 | 24175 ft | 459 kts | 197° |
| 2026-05-07 19:33 | 37.33387 | 140.51683 | 23838 ft | 456 kts | 197° |
| 2026-05-07 19:33 | 37.30303 | 140.50798 | 23519 ft | 453 kts | 197° |
| 2026-05-07 19:34 | 37.27226 | 140.49916 | 23199 ft | 452 kts | 197° |
| 2026-05-07 19:34 | 37.24157 | 140.49036 | 22882 ft | 451 kts | 197° |
| 2026-05-07 19:34 | 37.21095 | 140.48158 | 22564 ft | 449 kts | 197° |
| 2026-05-07 19:34 | 37.18023 | 140.47290 | 22248 ft | 448 kts | 197° |
| 2026-05-07 19:35 | 37.15393 | 140.46535 | 21963 ft | 446 kts | 197° |
| 2026-05-07 19:35 | 37.12378 | 140.45660 | 21628 ft | 443 kts | 197° |
| 2026-05-07 19:35 | 37.09351 | 140.44794 | 21300 ft | 441 kts | 197° |
| 2026-05-07 19:35 | 37.06366 | 140.43953 | 20963 ft | 438 kts | 196° |
| 2026-05-07 19:36 | 37.03357 | 140.43117 | 20629 ft | 435 kts | 196° |
| 2026-05-07 19:36 | 37.00422 | 140.42300 | 20303 ft | 422 kts | 196° |
| 2026-05-07 19:36 | 36.97637 | 140.41524 | 20086 ft | 412 kts | 197° |
| 2026-05-07 19:36 | 36.94834 | 140.40726 | 19987 ft | 404 kts | 197° |
| 2026-05-07 19:37 | 36.92131 | 140.39958 | 19200 ft | 407 kts | 197° |
| 2026-05-07 19:37 | 36.89304 | 140.39140 | 17973 ft | 418 kts | 196° |
| 2026-05-07 19:37 | 36.86509 | 140.38348 | 17783 ft | 415 kts | 196° |
| 2026-05-07 19:37 | 36.83838 | 140.37607 | 17539 ft | 417 kts | 195° |
| 2026-05-07 19:38 | 36.81004 | 140.36827 | 17240 ft | 415 kts | 196° |
| 2026-05-07 19:38 | 36.78183 | 140.36044 | 16950 ft | 412 kts | 196° |
| 2026-05-07 19:38 | 36.75379 | 140.35275 | 16654 ft | 411 kts | 195° |
| 2026-05-07 19:38 | 36.72569 | 140.34595 | 16353 ft | 412 kts | 193° |
| 2026-05-07 19:39 | 36.69729 | 140.34019 | 16069 ft | 410 kts | 192° |
| 2026-05-07 19:39 | 36.66884 | 140.33470 | 15789 ft | 409 kts | 192° |
| 2026-05-07 19:39 | 36.64039 | 140.32910 | 15505 ft | 408 kts | 192° |
| 2026-05-07 19:39 | 36.62154 | 140.32526 | 15308 ft | 407 kts | 192° |
| 2026-05-07 19:40 | 36.58382 | 140.31755 | 14919 ft | 406 kts | 192° |
| 2026-05-07 19:40 | 36.55542 | 140.31184 | 14629 ft | 405 kts | 192° |
| 2026-05-07 19:40 | 36.52738 | 140.30629 | 14317 ft | 402 kts | 192° |
| 2026-05-07 19:40 | 36.49913 | 140.30072 | 14004 ft | 399 kts | 192° |
| 2026-05-07 19:41 | 36.47127 | 140.29515 | 13724 ft | 401 kts | 193° |
| 2026-05-07 19:41 | 36.44459 | 140.28536 | 13423 ft | 394 kts | 207° |
| 2026-05-07 19:41 | 36.42115 | 140.26671 | 13173 ft | 389 kts | 223° |
| 2026-05-07 19:41 | 36.40339 | 140.24158 | 12901 ft | 387 kts | 237° |
| 2026-05-07 19:42 | 36.39179 | 140.21115 | 12628 ft | 386 kts | 251° |
| 2026-05-07 19:42 | 36.38475 | 140.17844 | 12353 ft | 384 kts | 255° |
| 2026-05-07 19:42 | 36.37897 | 140.14603 | 12063 ft | 385 kts | 256° |
| 2026-05-07 19:42 | 36.37316 | 140.11319 | 11751 ft | 381 kts | 256° |
| 2026-05-07 19:43 | 36.36741 | 140.08165 | 11428 ft | 363 kts | 255° |
| 2026-05-07 19:43 | 36.36170 | 140.05170 | 11107 ft | 338 kts | 252° |
| 2026-05-07 19:43 | 36.35297 | 140.02570 | 10874 ft | 308 kts | 238° |
| 2026-05-07 19:43 | 36.34027 | 140.00536 | 10671 ft | 285 kts | 223° |
| 2026-05-07 19:44 | 36.32386 | 139.99216 | 10498 ft | 268 kts | 204° |
| 2026-05-07 19:44 | 36.30602 | 139.98486 | 10407 ft | 270 kts | 199° |
| 2026-05-07 19:44 | 36.28762 | 139.97885 | 10227 ft | 269 kts | 198° |
| 2026-05-07 19:44 | 36.26945 | 139.97321 | 9995 ft | 263 kts | 198° |
| 2026-05-07 19:45 | 36.25145 | 139.96750 | 9863 ft | 273 kts | 198° |
| 2026-05-07 19:45 | 36.23310 | 139.96152 | 9620 ft | 266 kts | 198° |
| 2026-05-07 19:45 | 36.21554 | 139.95566 | 9408 ft | 266 kts | 199° |
| 2026-05-07 19:45 | 36.19727 | 139.94945 | 9248 ft | 273 kts | 198° |
| 2026-05-07 19:46 | 36.17918 | 139.94333 | 9012 ft | 264 kts | 198° |
| 2026-05-07 19:46 | 36.16105 | 139.93726 | 8855 ft | 270 kts | 198° |
| 2026-05-07 19:46 | 36.14276 | 139.93109 | 8669 ft | 270 kts | 198° |
| 2026-05-07 19:46 | 36.12501 | 139.92517 | 8436 ft | 263 kts | 198° |
| 2026-05-07 19:47 | 36.10680 | 139.91905 | 8269 ft | 269 kts | 198° |
| 2026-05-07 19:47 | 36.08870 | 139.91296 | 8060 ft | 266 kts | 198° |
| 2026-05-07 19:47 | 36.07086 | 139.90700 | 7880 ft | 271 kts | 198° |
| 2026-05-07 19:47 | 36.05246 | 139.90321 | 7546 ft | 258 kts | 184° |
| 2026-05-07 19:48 | 36.03510 | 139.90581 | 7358 ft | 251 kts | 168° |
| 2026-05-07 19:48 | 36.01860 | 139.91243 | 7194 ft | 246 kts | 162° |
| 2026-05-07 19:48 | 36.00274 | 139.92004 | 7043 ft | 241 kts | 162° |
| 2026-05-07 19:48 | 35.98752 | 139.92741 | 6885 ft | 228 kts | 163° |
| 2026-05-07 19:49 | 35.97291 | 139.93416 | 6334 ft | 219 kts | 163° |
| 2026-05-07 19:49 | 35.95912 | 139.94028 | 5989 ft | 206 kts | 164° |
| 2026-05-07 19:49 | 35.94544 | 139.94618 | 5343 ft | 209 kts | 163° |
| 2026-05-07 19:49 | 35.93202 | 139.95200 | 4985 ft | 201 kts | 162° |
| 2026-05-07 19:50 | 35.91835 | 139.95796 | 5033 ft | 211 kts | 162° |
| 2026-05-07 19:50 | 35.90439 | 139.96411 | 4917 ft | 208 kts | 162° |
| 2026-05-07 19:50 | 35.89080 | 139.97014 | 4914 ft | 210 kts | 162° |
| 2026-05-07 19:50 | 35.87670 | 139.97639 | 4964 ft | 212 kts | 163° |
| 2026-05-07 19:51 | 35.86250 | 139.98111 | 4902 ft | 208 kts | 174° |
| 2026-05-07 19:51 | 35.84790 | 139.98166 | 4951 ft | 207 kts | 186° |
| 2026-05-07 19:51 | 35.83340 | 139.97987 | 4949 ft | 206 kts | 189° |
| 2026-05-07 19:51 | 35.81911 | 139.97771 | 4913 ft | 205 kts | 189° |
| 2026-05-07 19:52 | 35.80480 | 139.97527 | 4914 ft | 205 kts | 198° |
| 2026-05-07 19:52 | 35.79210 | 139.96753 | 4989 ft | 205 kts | 216° |
| 2026-05-07 19:52 | 35.78022 | 139.95767 | 4957 ft | 203 kts | 215° |
| 2026-05-07 19:52 | 35.76851 | 139.94840 | 4930 ft | 200 kts | 216° |
| 2026-05-07 19:53 | 35.75766 | 139.93919 | 4887 ft | 182 kts | 217° |
| 2026-05-07 19:53 | 35.74680 | 139.92963 | 5041 ft | 196 kts | 217° |
| 2026-05-07 19:53 | 35.73604 | 139.92038 | 4865 ft | 183 kts | 217° |
| 2026-05-07 19:53 | 35.72525 | 139.91126 | 5039 ft | 196 kts | 217° |
| 2026-05-07 19:54 | 35.71423 | 139.90153 | 4932 ft | 189 kts | 218° |
| 2026-05-07 19:54 | 35.70335 | 139.89192 | 4633 ft | 193 kts | 218° |
| 2026-05-07 19:54 | 35.69245 | 139.88274 | 4182 ft | 195 kts | 217° |
| 2026-05-07 19:54 | 35.68111 | 139.87354 | 3680 ft | 190 kts | 217° |
| 2026-05-07 19:55 | 35.66978 | 139.86417 | 3041 ft | 202 kts | 216° |
| 2026-05-07 19:55 | 35.65807 | 139.85492 | 2573 ft | 196 kts | 214° |
| 2026-05-07 19:55 | 35.64676 | 139.84590 | 1962 ft | 193 kts | 215° |
| 2026-05-07 19:55 | 35.63600 | 139.83676 | 1587 ft | 182 kts | 217° |
| 2026-05-07 19:56 | 35.62531 | 139.82706 | 1449 ft | 191 kts | 217° |
| 2026-05-07 19:56 | 35.61460 | 139.81743 | 1220 ft | 195 kts | 216° |
| 2026-05-07 19:56 | 35.60352 | 139.80774 | 856 ft | 186 kts | 216° |
| 2026-05-07 19:56 | 35.59327 | 139.79894 | 567 ft | 184 kts | 213° |
| 2026-05-07 19:57 | 35.58270 | 139.79025 | 370 ft | 176 kts | 215° |
| 2026-05-07 19:57 | 35.57324 | 139.78206 | 134 ft | 155 kts | 214° |
| 2026-05-07 19:57 | 35.56347 | 139.77373 | 70 ft | 179 kts | 213° |
| 2026-05-07 19:57 | 35.55308 | 139.76503 | 471 ft | 186 kts | 214° |
| 2026-05-07 19:58 | 35.54217 | 139.75586 | 1008 ft | 174 kts | 223° |
| 2026-05-07 19:58 | 35.53496 | 139.74466 | 1333 ft | 184 kts | 245° |
| 2026-05-07 19:58 | 35.53360 | 139.72819 | 1883 ft | 216 kts | 291° |
| 2026-05-07 19:58 | 35.54294 | 139.71330 | 2608 ft | 236 kts | 324° |
| 2026-05-07 19:59 | 35.55888 | 139.70348 | 2986 ft | 279 kts | 349° |
| 2026-05-07 19:59 | 35.57789 | 139.70528 | 3355 ft | 266 kts | 19° |
| 2026-05-07 19:59 | 35.59547 | 139.71280 | 3398 ft | 266 kts | 20° |
| 2026-05-07 19:59 | 35.61269 | 139.72061 | 3480 ft | 261 kts | 12° |
| 2026-05-07 20:00 | 35.63102 | 139.72136 | 3613 ft | 266 kts | 359° |
| 2026-05-07 20:00 | 35.64994 | 139.72157 | 3740 ft | 270 kts | 6° |
| 2026-05-07 20:00 | 35.66851 | 139.72601 | 3798 ft | 269 kts | 14° |
| 2026-05-07 20:00 | 35.68631 | 139.73300 | 3903 ft | 271 kts | 18° |
| 2026-05-07 20:01 | 35.70436 | 139.74141 | 4011 ft | 274 kts | 20° |
| 2026-05-07 20:01 | 35.72221 | 139.75034 | 3993 ft | 275 kts | 21° |
| 2026-05-07 20:01 | 35.73977 | 139.75943 | 3923 ft | 266 kts | 21° |
| 2026-05-07 20:01 | 35.75662 | 139.76820 | 3831 ft | 253 kts | 21° |
| 2026-05-07 20:02 | 35.77245 | 139.77641 | 3712 ft | 242 kts | 21° |
| 2026-05-07 20:02 | 35.78778 | 139.78422 | 3588 ft | 232 kts | 21° |
| 2026-05-07 20:02 | 35.80254 | 139.79158 | 3471 ft | 223 kts | 20° |
| 2026-05-07 20:02 | 35.81688 | 139.79855 | 3355 ft | 216 kts | 20° |
| 2026-05-07 20:03 | 35.83148 | 139.80133 | 3269 ft | 214 kts | 354° |
| 2026-05-07 20:03 | 35.84604 | 139.79799 | 3209 ft | 217 kts | 344° |
| 2026-05-07 20:03 | 35.86001 | 139.79189 | 3038 ft | 212 kts | 338° |
| 2026-05-07 20:03 | 35.87315 | 139.78355 | 2899 ft | 207 kts | 331° |
| 2026-05-07 20:04 | 35.88760 | 139.78070 | 3052 ft | 217 kts | 17° |
| 2026-05-07 20:04 | 35.90158 | 139.78893 | 3078 ft | 224 kts | 34° |
| 2026-05-07 20:04 | 35.91220 | 139.80252 | 2892 ft | 217 kts | 66° |
| 2026-05-07 20:04 | 35.91460 | 139.82114 | 3009 ft | 224 kts | 99° |
| 2026-05-07 20:05 | 35.90971 | 139.83954 | 2994 ft | 226 kts | 117° |
| 2026-05-07 20:05 | 35.90150 | 139.85596 | 2921 ft | 223 kts | 126° |
| 2026-05-07 20:05 | 35.89183 | 139.87123 | 2942 ft | 222 kts | 129° |
| 2026-05-07 20:05 | 35.88185 | 139.88544 | 2905 ft | 210 kts | 131° |
| 2026-05-07 20:06 | 35.87208 | 139.89867 | 3013 ft | 212 kts | 132° |
| 2026-05-07 20:06 | 35.86216 | 139.91147 | 3026 ft | 204 kts | 136° |
| 2026-05-07 20:06 | 35.84963 | 139.91872 | 2933 ft | 200 kts | 168° |
| 2026-05-07 20:06 | 35.83624 | 139.92003 | 2906 ft | 184 kts | 181° |
| 2026-05-07 20:07 | 35.82343 | 139.91896 | 2946 ft | 189 kts | 186° |
| 2026-05-07 20:07 | 35.81006 | 139.91672 | 3169 ft | 193 kts | 190° |
| 2026-05-07 20:07 | 35.79675 | 139.91330 | 3141 ft | 190 kts | 192° |
| 2026-05-07 20:07 | 35.78367 | 139.91054 | 2897 ft | 188 kts | 191° |
| 2026-05-07 20:08 | 35.77081 | 139.90738 | 2559 ft | 184 kts | 194° |
| 2026-05-07 20:08 | 35.75861 | 139.90318 | 2227 ft | 182 kts | 202° |
| 2026-05-07 20:08 | 35.74654 | 139.89827 | 2052 ft | 185 kts | 200° |
| 2026-05-07 20:08 | 35.73437 | 139.89282 | 1884 ft | 183 kts | 201° |
| 2026-05-07 20:09 | 35.72252 | 139.88709 | 1827 ft | 181 kts | 202° |
| 2026-05-07 20:09 | 35.71059 | 139.88088 | 2077 ft | 187 kts | 204° |
| 2026-05-07 20:09 | 35.69884 | 139.87431 | 2546 ft | 187 kts | 206° |
| 2026-05-07 20:10 | 35.67365 | 139.86285 | 2913 ft | 191 kts | 198° |
| 2026-05-07 20:10 | 35.66202 | 139.85727 | 2936 ft | 177 kts | 211° |
| 2026-05-07 20:10 | 35.65188 | 139.84753 | 3009 ft | 184 kts | 226° |
| 2026-05-07 20:10 | 35.64190 | 139.83711 | 3143 ft | 186 kts | 220° |
| 2026-05-07 20:11 | 35.63124 | 139.82703 | 3056 ft | 185 kts | 222° |
| 2026-05-07 20:11 | 35.62094 | 139.81753 | 2622 ft | 187 kts | 219° |
| 2026-05-07 20:11 | 35.61003 | 139.80864 | 2001 ft | 186 kts | 216° |
| 2026-05-07 20:11 | 35.59785 | 139.80066 | 1445 ft | 216 kts | 208° |
| 2026-05-07 20:12 | 35.58502 | 139.79471 | 2608 ft | 159 kts | 201° |
| 2026-05-07 20:12 | 35.57653 | 139.79295 | 3425 ft | 121 kts | 191° |
| 2026-05-07 20:12 | 35.56593 | 139.79488 | 2099 ft | 204 kts | 154° |
| 2026-05-07 20:12 | 35.55775 | 139.80864 | 2603 ft | 183 kts | 96° |
| 2026-05-07 20:13 | 35.55895 | 139.82211 | 3010 ft | 162 kts | 60° |
| 2026-05-07 20:13 | 35.56501 | 139.83305 | 2597 ft | 157 kts | 42° |
| 2026-05-07 20:13 | 35.57342 | 139.84178 | 1963 ft | 160 kts | 25° |
| 2026-05-07 20:13 | 35.58423 | 139.84248 | 1164 ft | 166 kts | 326° |
| 2026-05-07 20:14 | 35.58851 | 139.83049 | 173 ft | 168 kts | 248° |
| 2026-05-07 20:14 | 35.58324 | 139.81725 | 443 ft | 167 kts | 243° |
| 2026-05-07 20:14 | 35.58012 | 139.80475 | 444 ft | 159 kts | 275° |
| 2026-05-07 20:14 | 35.58301 | 139.79027 | 726 ft | 179 kts | 288° |
| 2026-05-07 20:15 | 35.58819 | 139.77730 | 1482 ft | 152 kts | 299° |
| 2026-05-07 20:15 | 35.59444 | 139.76665 | 1629 ft | 170 kts | 321° |
| 2026-05-07 20:15 | 35.60566 | 139.76553 | 1456 ft | 172 kts | 33° |
| 2026-05-07 20:15 | 35.61101 | 139.77782 | 839 ft | 178 kts | 102° |
| 2026-05-07 20:16 | 35.60244 | 139.78758 | 845 ft | 185 kts | 190° |
| 2026-05-07 20:16 | 35.58955 | 139.78564 | 845 ft | 178 kts | 177° |
| 2026-05-07 20:16 | 35.57764 | 139.78441 | 334 ft | 169 kts | 205° |
| 2026-05-07 20:16 | 35.56809 | 139.77747 | 58 ft | 150 kts | 212° |
| 2026-05-07 20:17 | 35.55987 | 139.77063 | 27 ft | 124 kts | 215° |
| 2026-05-07 20:17 | 35.55504 | 139.76666 | 26 ft | 40 kts | 197° |
| 2026-05-07 20:17 | 35.55420 | 139.76640 | 27 ft | 0 kts | 192° |
| 2026-05-07 20:17 | 35.55382 | 139.76631 | 28 ft | 10 kts | 192° |
| 2026-05-07 20:18 | 35.55306 | 139.76633 | 29 ft | 11 kts | 160° |
| 2026-05-07 20:18 | 35.55221 | 139.76646 | 29 ft | 12 kts | 196° |